sensor_id;sensor_type;location;lat;lon;timestamp;temperature;humidity
39849;DHT22;25518;47.878;15.914;2023-04-24T00:01:03;8.50;99.90
39849;DHT22;25518;47.878;15.914;2023-04-24T00:03:53;8.50;99.90
39849;DHT22;25518;47.878;15.914;2023-04-24T00:06:43;8.30;99.90
39849;DHT22;25518;47.878;15.914;2023-04-24T00:09:33;8.10;99.90
39849;DHT22;25518;47.878;15.914;2023-04-24T00:12:24;8.20;99.90
39849;DHT22;25518;47.878;15.914;2023-04-24T00:15:14;8.20;99.90
39849;DHT22;25518;47.878;15.914;2023-04-24T00:18:04;8.10;99.90
39849;DHT22;25518;47.878;15.914;2023-04-24T00:20:53;8.10;99.90
39849;DHT22;25518;47.878;15.914;2023-04-24T00:23:43;8.10;99.90
39849;DHT22;25518;47.878;15.914;2023-04-24T00:26:34;8.10;99.90
39849;DHT22;25518;47.878;15.914;2023-04-24T00:29:24;8.10;99.90
39849;DHT22;25518;47.878;15.914;2023-04-24T00:32:13;8.10;99.90
39849;DHT22;25518;47.878;15.914;2023-04-24T00:35:03;8.00;99.90
39849;DHT22;25518;47.878;15.914;2023-04-24T00:37:53;8.00;99.90
39849;DHT22;25518;47.878;15.914;2023-04-24T00:40:43;7.90;99.90
39849;DHT22;25518;47.878;15.914;2023-04-24T00:43:32;7.90;99.90
39849;DHT22;25518;47.878;15.914;2023-04-24T00:46:22;8.00;99.90
39849;DHT22;25518;47.878;15.914;2023-04-24T00:49:13;7.80;99.90
39849;DHT22;25518;47.878;15.914;2023-04-24T00:52:03;7.80;99.90
39849;DHT22;25518;47.878;15.914;2023-04-24T00:54:56;7.80;99.90
39849;DHT22;25518;47.878;15.914;2023-04-24T00:57:46;7.80;99.90
39849;DHT22;25518;47.878;15.914;2023-04-24T01:00:36;7.90;99.90
39849;DHT22;25518;47.878;15.914;2023-04-24T01:03:29;7.90;99.90
39849;DHT22;25518;47.878;15.914;2023-04-24T01:06:22;7.90;99.90
39849;DHT22;25518;47.878;15.914;2023-04-24T01:09:13;7.80;99.90
39849;DHT22;25518;47.878;15.914;2023-04-24T01:12:04;7.80;99.90
39849;DHT22;25518;47.878;15.914;2023-04-24T01:14:55;7.70;99.90
39849;DHT22;25518;47.878;15.914;2023-04-24T01:17:45;7.70;99.90
39849;DHT22;25518;47.878;15.914;2023-04-24T01:20:37;7.80;99.90
39849;DHT22;25518;47.878;15.914;2023-04-24T01:23:29;7.80;99.90
39849;DHT22;25518;47.878;15.914;2023-04-24T01:26:19;7.80;99.90
39849;DHT22;25518;47.878;15.914;2023-04-24T01:29:09;7.70;99.90
39849;DHT22;25518;47.878;15.914;2023-04-24T01:31:59;7.80;99.90
39849;DHT22;25518;47.878;15.914;2023-04-24T01:34:49;7.60;99.90
39849;DHT22;25518;47.878;15.914;2023-04-24T01:37:40;7.60;99.90
39849;DHT22;25518;47.878;15.914;2023-04-24T01:40:30;7.40;99.90
39849;DHT22;25518;47.878;15.914;2023-04-24T01:43:19;7.40;99.90
39849;DHT22;25518;47.878;15.914;2023-04-24T01:46:10;7.50;99.90
39849;DHT22;25518;47.878;15.914;2023-04-24T01:49:01;7.40;99.90
39849;DHT22;25518;47.878;15.914;2023-04-24T01:51:50;7.40;99.90
39849;DHT22;25518;47.878;15.914;2023-04-24T01:54:40;7.50;99.90
39849;DHT22;25518;47.878;15.914;2023-04-24T01:57:31;7.40;99.90
39849;DHT22;25518;47.878;15.914;2023-04-24T02:00:20;7.50;99.90
39849;DHT22;25518;47.878;15.914;2023-04-24T02:03:10;7.40;99.90
39849;DHT22;25518;47.878;15.914;2023-04-24T02:06:00;7.40;99.90
39849;DHT22;25518;47.878;15.914;2023-04-24T02:08:49;7.40;99.90
39849;DHT22;25518;47.878;15.914;2023-04-24T02:11:39;7.30;99.90
39849;DHT22;25518;47.878;15.914;2023-04-24T02:14:29;7.30;99.90
39849;DHT22;25518;47.878;15.914;2023-04-24T02:17:19;7.50;99.90
39849;DHT22;25518;47.878;15.914;2023-04-24T02:20:09;7.40;99.90
39849;DHT22;25518;47.878;15.914;2023-04-24T02:22:58;7.50;99.90
39849;DHT22;25518;47.878;15.914;2023-04-24T02:25:48;7.50;99.90
39849;DHT22;25518;47.878;15.914;2023-04-24T02:28:38;7.60;99.90
39849;DHT22;25518;47.878;15.914;2023-04-24T02:31:28;7.60;99.90
39849;DHT22;25518;47.878;15.914;2023-04-24T02:34:17;7.60;99.90
39849;DHT22;25518;47.878;15.914;2023-04-24T02:37:07;7.60;99.90
39849;DHT22;25518;47.878;15.914;2023-04-24T02:39:56;7.70;99.90
39849;DHT22;25518;47.878;15.914;2023-04-24T02:42:45;7.70;99.90
39849;DHT22;25518;47.878;15.914;2023-04-24T02:45:35;7.70;99.90
39849;DHT22;25518;47.878;15.914;2023-04-24T02:48:25;7.70;99.90
39849;DHT22;25518;47.878;15.914;2023-04-24T02:51:14;7.80;99.90
39849;DHT22;25518;47.878;15.914;2023-04-24T02:54:04;8.00;99.90
39849;DHT22;25518;47.878;15.914;2023-04-24T02:56:53;8.00;99.90
39849;DHT22;25518;47.878;15.914;2023-04-24T02:59:43;8.20;99.90
39849;DHT22;25518;47.878;15.914;2023-04-24T03:19:31;8.20;99.90
39849;DHT22;25518;47.878;15.914;2023-04-24T03:22:21;8.30;99.90
39849;DHT22;25518;47.878;15.914;2023-04-24T03:25:11;8.30;99.90
39849;DHT22;25518;47.878;15.914;2023-04-24T03:28:00;8.40;99.90
39849;DHT22;25518;47.878;15.914;2023-04-24T03:30:50;8.40;99.90
39849;DHT22;25518;47.878;15.914;2023-04-24T03:33:40;8.40;99.90
39849;DHT22;25518;47.878;15.914;2023-04-24T03:36:30;8.40;99.90
39849;DHT22;25518;47.878;15.914;2023-04-24T03:39:20;8.40;99.90
39849;DHT22;25518;47.878;15.914;2023-04-24T03:42:09;8.30;99.90
39849;DHT22;25518;47.878;15.914;2023-04-24T03:44:59;8.30;99.90
39849;DHT22;25518;47.878;15.914;2023-04-24T03:47:48;8.40;99.90
39849;DHT22;25518;47.878;15.914;2023-04-24T03:50:38;8.40;99.90
39849;DHT22;25518;47.878;15.914;2023-04-24T03:53:28;8.50;99.90
39849;DHT22;25518;47.878;15.914;2023-04-24T03:56:17;8.40;99.90
39849;DHT22;25518;47.878;15.914;2023-04-24T03:59:07;8.50;99.90
39849;DHT22;25518;47.878;15.914;2023-04-24T04:01:57;8.50;99.90
39849;DHT22;25518;47.878;15.914;2023-04-24T04:04:46;8.60;99.90
39849;DHT22;25518;47.878;15.914;2023-04-24T04:07:35;8.70;99.90
39849;DHT22;25518;47.878;15.914;2023-04-24T04:10:25;8.70;99.90
39849;DHT22;25518;47.878;15.914;2023-04-24T04:13:15;8.80;99.90
39849;DHT22;25518;47.878;15.914;2023-04-24T04:16:04;8.70;99.90
39849;DHT22;25518;47.878;15.914;2023-04-24T04:18:54;8.80;99.90
39849;DHT22;25518;47.878;15.914;2023-04-24T04:21:44;8.80;99.90
39849;DHT22;25518;47.878;15.914;2023-04-24T04:24:34;8.80;99.90
39849;DHT22;25518;47.878;15.914;2023-04-24T04:27:27;8.80;99.90
39849;DHT22;25518;47.878;15.914;2023-04-24T04:30:18;8.90;99.90
39849;DHT22;25518;47.878;15.914;2023-04-24T04:33:07;8.80;99.90
39849;DHT22;25518;47.878;15.914;2023-04-24T04:35:58;8.90;99.90
39849;DHT22;25518;47.878;15.914;2023-04-24T04:38:47;9.00;99.90
39849;DHT22;25518;47.878;15.914;2023-04-24T04:41:38;9.10;99.90
39849;DHT22;25518;47.878;15.914;2023-04-24T04:44:29;9.20;99.90
39849;DHT22;25518;47.878;15.914;2023-04-24T04:47:22;9.20;99.90
39849;DHT22;25518;47.878;15.914;2023-04-24T04:50:12;9.40;99.90
39849;DHT22;25518;47.878;15.914;2023-04-24T04:53:02;9.50;99.90
39849;DHT22;25518;47.878;15.914;2023-04-24T04:55:52;9.60;99.90
39849;DHT22;25518;47.878;15.914;2023-04-24T04:58:41;9.70;99.90
39849;DHT22;25518;47.878;15.914;2023-04-24T05:01:31;9.80;99.90
39849;DHT22;25518;47.878;15.914;2023-04-24T05:04:21;9.90;99.90
39849;DHT22;25518;47.878;15.914;2023-04-24T05:07:11;9.90;99.90
39849;DHT22;25518;47.878;15.914;2023-04-24T05:10:00;10.10;99.90
39849;DHT22;25518;47.878;15.914;2023-04-24T05:12:50;10.10;99.90
39849;DHT22;25518;47.878;15.914;2023-04-24T05:15:40;10.10;99.90
39849;DHT22;25518;47.878;15.914;2023-04-24T05:18:29;10.20;99.90
39849;DHT22;25518;47.878;15.914;2023-04-24T05:21:19;10.20;99.90
39849;DHT22;25518;47.878;15.914;2023-04-24T05:24:09;10.20;99.90
39849;DHT22;25518;47.878;15.914;2023-04-24T05:26:59;10.30;99.90
39849;DHT22;25518;47.878;15.914;2023-04-24T05:29:49;10.20;99.90
39849;DHT22;25518;47.878;15.914;2023-04-24T05:32:39;10.50;99.90
39849;DHT22;25518;47.878;15.914;2023-04-24T05:35:28;10.30;99.90
39849;DHT22;25518;47.878;15.914;2023-04-24T05:38:18;10.40;99.90
39849;DHT22;25518;47.878;15.914;2023-04-24T05:41:09;10.50;99.90
39849;DHT22;25518;47.878;15.914;2023-04-24T05:43:58;10.50;99.90
39849;DHT22;25518;47.878;15.914;2023-04-24T05:46:48;10.60;99.90
39849;DHT22;25518;47.878;15.914;2023-04-24T05:49:38;10.70;99.90
39849;DHT22;25518;47.878;15.914;2023-04-24T05:52:27;10.80;99.90
39849;DHT22;25518;47.878;15.914;2023-04-24T05:55:17;10.80;99.90
39849;DHT22;25518;47.878;15.914;2023-04-24T05:58:07;11.00;99.90
39849;DHT22;25518;47.878;15.914;2023-04-24T06:00:57;11.00;99.90
39849;DHT22;25518;47.878;15.914;2023-04-24T06:03:48;11.00;99.90
39849;DHT22;25518;47.878;15.914;2023-04-24T06:06:37;11.10;99.90
39849;DHT22;25518;47.878;15.914;2023-04-24T06:09:27;11.30;99.90
39849;DHT22;25518;47.878;15.914;2023-04-24T06:12:17;11.30;99.90
39849;DHT22;25518;47.878;15.914;2023-04-24T06:15:07;11.40;99.90
39849;DHT22;25518;47.878;15.914;2023-04-24T06:17:57;11.60;99.90
39849;DHT22;25518;47.878;15.914;2023-04-24T06:20:47;11.70;99.90
39849;DHT22;25518;47.878;15.914;2023-04-24T06:23:37;11.80;99.90
39849;DHT22;25518;47.878;15.914;2023-04-24T06:26:27;11.80;99.90
39849;DHT22;25518;47.878;15.914;2023-04-24T06:29:17;11.80;99.90
39849;DHT22;25518;47.878;15.914;2023-04-24T06:32:06;11.80;99.90
39849;DHT22;25518;47.878;15.914;2023-04-24T06:34:57;11.60;99.90
39849;DHT22;25518;47.878;15.914;2023-04-24T06:37:46;11.70;99.90
39849;DHT22;25518;47.878;15.914;2023-04-24T06:40:37;11.70;99.90
39849;DHT22;25518;47.878;15.914;2023-04-24T06:43:27;11.60;99.90
39849;DHT22;25518;47.878;15.914;2023-04-24T06:46:16;11.50;99.90
39849;DHT22;25518;47.878;15.914;2023-04-24T06:49:06;11.50;99.90
39849;DHT22;25518;47.878;15.914;2023-04-24T06:51:55;11.50;99.90
39849;DHT22;25518;47.878;15.914;2023-04-24T06:54:45;11.50;99.90
39849;DHT22;25518;47.878;15.914;2023-04-24T06:57:35;11.40;99.90
39849;DHT22;25518;47.878;15.914;2023-04-24T07:00:24;11.40;99.90
39849;DHT22;25518;47.878;15.914;2023-04-24T07:03:14;11.40;99.90
39849;DHT22;25518;47.878;15.914;2023-04-24T07:06:05;11.40;99.90
39849;DHT22;25518;47.878;15.914;2023-04-24T07:08:55;11.30;99.90
39849;DHT22;25518;47.878;15.914;2023-04-24T07:11:45;11.30;99.90
39849;DHT22;25518;47.878;15.914;2023-04-24T07:14:36;11.20;99.90
39849;DHT22;25518;47.878;15.914;2023-04-24T07:17:25;11.20;99.90
39849;DHT22;25518;47.878;15.914;2023-04-24T07:20:15;11.10;99.90
39849;DHT22;25518;47.878;15.914;2023-04-24T07:23:05;10.90;99.90
39849;DHT22;25518;47.878;15.914;2023-04-24T07:25:55;10.80;99.90
39849;DHT22;25518;47.878;15.914;2023-04-24T07:28:44;10.90;99.90
39849;DHT22;25518;47.878;15.914;2023-04-24T07:31:34;10.90;99.90
39849;DHT22;25518;47.878;15.914;2023-04-24T07:34:24;10.90;99.90
39849;DHT22;25518;47.878;15.914;2023-04-24T07:37:13;10.90;99.90
39849;DHT22;25518;47.878;15.914;2023-04-24T07:40:03;11.00;99.90
39849;DHT22;25518;47.878;15.914;2023-04-24T07:42:53;11.10;99.90
39849;DHT22;25518;47.878;15.914;2023-04-24T07:45:44;11.10;99.90
39849;DHT22;25518;47.878;15.914;2023-04-24T07:48:33;11.20;99.90
39849;DHT22;25518;47.878;15.914;2023-04-24T07:51:23;11.30;99.90
39849;DHT22;25518;47.878;15.914;2023-04-24T07:54:12;11.20;99.90
39849;DHT22;25518;47.878;15.914;2023-04-24T07:57:02;11.20;99.90
39849;DHT22;25518;47.878;15.914;2023-04-24T07:59:52;11.30;99.90
39849;DHT22;25518;47.878;15.914;2023-04-24T08:02:42;11.40;99.90
39849;DHT22;25518;47.878;15.914;2023-04-24T08:05:31;11.30;99.90
39849;DHT22;25518;47.878;15.914;2023-04-24T08:08:22;11.20;99.90
39849;DHT22;25518;47.878;15.914;2023-04-24T08:11:12;11.20;99.90
39849;DHT22;25518;47.878;15.914;2023-04-24T08:14:01;11.10;99.90
39849;DHT22;25518;47.878;15.914;2023-04-24T08:16:54;11.10;99.90
39849;DHT22;25518;47.878;15.914;2023-04-24T08:19:45;11.10;99.90
39849;DHT22;25518;47.878;15.914;2023-04-24T08:22:37;11.20;99.90
39849;DHT22;25518;47.878;15.914;2023-04-24T08:25:27;11.10;99.90
39849;DHT22;25518;47.878;15.914;2023-04-24T08:28:16;11.10;99.90
39849;DHT22;25518;47.878;15.914;2023-04-24T08:31:09;11.10;99.90
39849;DHT22;25518;47.878;15.914;2023-04-24T08:33:59;11.20;99.90
39849;DHT22;25518;47.878;15.914;2023-04-24T08:36:49;11.30;99.90
39849;DHT22;25518;47.878;15.914;2023-04-24T08:39:40;11.30;99.90
39849;DHT22;25518;47.878;15.914;2023-04-24T08:42:30;11.20;99.90
39849;DHT22;25518;47.878;15.914;2023-04-24T08:45:23;11.30;99.90
39849;DHT22;25518;47.878;15.914;2023-04-24T08:48:13;11.30;99.90
39849;DHT22;25518;47.878;15.914;2023-04-24T08:51:03;11.20;99.90
39849;DHT22;25518;47.878;15.914;2023-04-24T08:53:56;11.30;99.90
39849;DHT22;25518;47.878;15.914;2023-04-24T08:56:48;11.20;99.90
39849;DHT22;25518;47.878;15.914;2023-04-24T08:59:38;11.30;99.90
39849;DHT22;25518;47.878;15.914;2023-04-24T09:02:28;11.20;99.90
39849;DHT22;25518;47.878;15.914;2023-04-24T09:05:18;11.30;99.90
39849;DHT22;25518;47.878;15.914;2023-04-24T09:08:09;11.20;99.90
39849;DHT22;25518;47.878;15.914;2023-04-24T09:11:00;11.20;99.90
39849;DHT22;25518;47.878;15.914;2023-04-24T09:13:52;11.30;99.90
39849;DHT22;25518;47.878;15.914;2023-04-24T09:16:41;11.20;99.90
39849;DHT22;25518;47.878;15.914;2023-04-24T09:19:31;11.30;99.90
39849;DHT22;25518;47.878;15.914;2023-04-24T09:22:21;11.30;99.90
39849;DHT22;25518;47.878;15.914;2023-04-24T09:25:11;11.40;99.90
39849;DHT22;25518;47.878;15.914;2023-04-24T09:28:03;11.30;99.90
39849;DHT22;25518;47.878;15.914;2023-04-24T09:31:08;11.30;99.90
39849;DHT22;25518;47.878;15.914;2023-04-24T09:33:58;11.10;99.90
39849;DHT22;25518;47.878;15.914;2023-04-24T09:36:48;11.10;99.90
39849;DHT22;25518;47.878;15.914;2023-04-24T09:39:38;11.00;99.90
39849;DHT22;25518;47.878;15.914;2023-04-24T09:42:29;10.90;99.90
39849;DHT22;25518;47.878;15.914;2023-04-24T09:45:21;10.80;99.90
39849;DHT22;25518;47.878;15.914;2023-04-24T09:48:10;10.70;99.90
39849;DHT22;25518;47.878;15.914;2023-04-24T09:51:02;10.40;99.90
39849;DHT22;25518;47.878;15.914;2023-04-24T09:53:53;10.40;99.90
39849;DHT22;25518;47.878;15.914;2023-04-24T09:56:44;10.30;99.90
39849;DHT22;25518;47.878;15.914;2023-04-24T09:59:34;10.10;99.90
39849;DHT22;25518;47.878;15.914;2023-04-24T10:02:24;10.10;99.90
39849;DHT22;25518;47.878;15.914;2023-04-24T10:05:15;10.10;99.90
39849;DHT22;25518;47.878;15.914;2023-04-24T10:08:08;10.00;99.90
39849;DHT22;25518;47.878;15.914;2023-04-24T10:10:59;10.00;99.90
39849;DHT22;25518;47.878;15.914;2023-04-24T10:13:51;10.00;99.90
39849;DHT22;25518;47.878;15.914;2023-04-24T10:16:41;9.90;99.90
39849;DHT22;25518;47.878;15.914;2023-04-24T10:19:32;9.90;99.90
39849;DHT22;25518;47.878;15.914;2023-04-24T10:22:23;9.90;99.90
39849;DHT22;25518;47.878;15.914;2023-04-24T10:25:13;10.00;99.90
39849;DHT22;25518;47.878;15.914;2023-04-24T10:28:05;10.30;99.90
39849;DHT22;25518;47.878;15.914;2023-04-24T10:30:54;10.40;99.90
39849;DHT22;25518;47.878;15.914;2023-04-24T10:33:46;10.40;99.90
39849;DHT22;25518;47.878;15.914;2023-04-24T10:36:40;10.60;99.90
39849;DHT22;25518;47.878;15.914;2023-04-24T10:39:30;10.80;99.90
39849;DHT22;25518;47.878;15.914;2023-04-24T10:42:22;10.80;99.90
39849;DHT22;25518;47.878;15.914;2023-04-24T10:45:21;10.90;99.90
39849;DHT22;25518;47.878;15.914;2023-04-24T10:48:11;11.10;99.90
39849;DHT22;25518;47.878;15.914;2023-04-24T10:51:05;11.00;99.90
39849;DHT22;25518;47.878;15.914;2023-04-24T10:54:28;11.10;99.90
39849;DHT22;25518;47.878;15.914;2023-04-24T11:00:19;11.50;99.90
39849;DHT22;25518;47.878;15.914;2023-04-24T11:03:27;11.40;99.90
39849;DHT22;25518;47.878;15.914;2023-04-24T11:06:29;11.40;99.90
39849;DHT22;25518;47.878;15.914;2023-04-24T11:09:21;11.40;99.90
39849;DHT22;25518;47.878;15.914;2023-04-24T11:12:11;11.40;99.90
39849;DHT22;25518;47.878;15.914;2023-04-24T11:15:03;11.50;99.90
39849;DHT22;25518;47.878;15.914;2023-04-24T11:17:55;11.40;99.90
39849;DHT22;25518;47.878;15.914;2023-04-24T11:20:46;10.90;99.90
39849;DHT22;25518;47.878;15.914;2023-04-24T11:23:36;11.40;99.90
39849;DHT22;25518;47.878;15.914;2023-04-24T11:26:26;11.50;99.90
39849;DHT22;25518;47.878;15.914;2023-04-24T11:29:20;11.60;99.90
39849;DHT22;25518;47.878;15.914;2023-04-24T11:32:29;11.60;99.90
39849;DHT22;25518;47.878;15.914;2023-04-24T11:35:20;11.80;99.90
39849;DHT22;25518;47.878;15.914;2023-04-24T11:38:11;11.90;99.90
39849;DHT22;25518;47.878;15.914;2023-04-24T11:41:02;11.90;99.90
39849;DHT22;25518;47.878;15.914;2023-04-24T11:43:54;11.80;99.90
39849;DHT22;25518;47.878;15.914;2023-04-24T11:46:44;11.70;99.90
39849;DHT22;25518;47.878;15.914;2023-04-24T11:49:37;11.50;99.90
39849;DHT22;25518;47.878;15.914;2023-04-24T11:52:28;11.60;99.90
39849;DHT22;25518;47.878;15.914;2023-04-24T11:58:08;11.50;99.90
39849;DHT22;25518;47.878;15.914;2023-04-24T12:00:58;11.40;99.90
39849;DHT22;25518;47.878;15.914;2023-04-24T12:03:50;11.30;99.90
39849;DHT22;25518;47.878;15.914;2023-04-24T12:07:02;11.40;99.90
39849;DHT22;25518;47.878;15.914;2023-04-24T12:09:57;11.50;99.90
39849;DHT22;25518;47.878;15.914;2023-04-24T12:12:47;11.40;99.90
39849;DHT22;25518;47.878;15.914;2023-04-24T12:15:40;11.50;99.90
39849;DHT22;25518;47.878;15.914;2023-04-24T12:18:30;11.50;99.90
39849;DHT22;25518;47.878;15.914;2023-04-24T12:21:22;11.10;99.90
39849;DHT22;25518;47.878;15.914;2023-04-24T12:24:14;11.70;99.90
39849;DHT22;25518;47.878;15.914;2023-04-24T12:27:04;11.70;99.90
39849;DHT22;25518;47.878;15.914;2023-04-24T12:29:57;11.60;99.90
39849;DHT22;25518;47.878;15.914;2023-04-24T12:32:49;11.50;99.90
39849;DHT22;25518;47.878;15.914;2023-04-24T12:35:40;11.50;99.90
39849;DHT22;25518;47.878;15.914;2023-04-24T12:38:30;11.50;99.90
39849;DHT22;25518;47.878;15.914;2023-04-24T12:41:20;11.50;99.90
39849;DHT22;25518;47.878;15.914;2023-04-24T12:44:10;11.50;99.90
39849;DHT22;25518;47.878;15.914;2023-04-24T12:47:01;11.50;99.90
39849;DHT22;25518;47.878;15.914;2023-04-24T12:49:50;11.50;99.90
39849;DHT22;25518;47.878;15.914;2023-04-24T12:52:42;11.60;99.90
39849;DHT22;25518;47.878;15.914;2023-04-24T12:55:32;11.60;99.90
39849;DHT22;25518;47.878;15.914;2023-04-24T12:58:22;11.70;99.90
39849;DHT22;25518;47.878;15.914;2023-04-24T13:01:11;11.80;99.90
39849;DHT22;25518;47.878;15.914;2023-04-24T13:04:01;11.60;99.90
39849;DHT22;25518;47.878;15.914;2023-04-24T13:06:51;11.60;99.90
39849;DHT22;25518;47.878;15.914;2023-04-24T13:09:41;11.50;99.90
39849;DHT22;25518;47.878;15.914;2023-04-24T13:12:31;11.60;99.90
39849;DHT22;25518;47.878;15.914;2023-04-24T13:15:21;11.60;99.90
39849;DHT22;25518;47.878;15.914;2023-04-24T13:18:11;11.40;99.90
39849;DHT22;25518;47.878;15.914;2023-04-24T13:21:01;11.40;99.90
39849;DHT22;25518;47.878;15.914;2023-04-24T13:23:50;11.50;99.90
39849;DHT22;25518;47.878;15.914;2023-04-24T13:26:41;11.60;99.90
39849;DHT22;25518;47.878;15.914;2023-04-24T13:29:31;11.70;99.90
39849;DHT22;25518;47.878;15.914;2023-04-24T13:32:21;11.60;99.90
39849;DHT22;25518;47.878;15.914;2023-04-24T13:35:10;11.40;99.90
39849;DHT22;25518;47.878;15.914;2023-04-24T13:38:00;11.50;99.90
39849;DHT22;25518;47.878;15.914;2023-04-24T13:40:50;11.50;99.90
39849;DHT22;25518;47.878;15.914;2023-04-24T13:43:40;11.50;99.90
39849;DHT22;25518;47.878;15.914;2023-04-24T13:46:31;11.40;99.90
39849;DHT22;25518;47.878;15.914;2023-04-24T13:49:22;11.40;99.90
39849;DHT22;25518;47.878;15.914;2023-04-24T13:52:14;11.20;99.90
39849;DHT22;25518;47.878;15.914;2023-04-24T13:55:04;11.20;99.90
39849;DHT22;25518;47.878;15.914;2023-04-24T13:57:54;11.20;99.90
39849;DHT22;25518;47.878;15.914;2023-04-24T14:00:44;11.20;99.90
39849;DHT22;25518;47.878;15.914;2023-04-24T14:03:34;11.00;99.90
39849;DHT22;25518;47.878;15.914;2023-04-24T14:06:24;11.10;99.90
39849;DHT22;25518;47.878;15.914;2023-04-24T14:09:13;11.10;99.90
39849;DHT22;25518;47.878;15.914;2023-04-24T14:12:04;11.30;99.90
39849;DHT22;25518;47.878;15.914;2023-04-24T14:14:54;11.20;99.90
39849;DHT22;25518;47.878;15.914;2023-04-24T14:17:44;11.10;99.90
39849;DHT22;25518;47.878;15.914;2023-04-24T14:20:34;11.10;99.90
39849;DHT22;25518;47.878;15.914;2023-04-24T14:23:23;11.10;99.90
39849;DHT22;25518;47.878;15.914;2023-04-24T14:26:13;11.10;99.90
39849;DHT22;25518;47.878;15.914;2023-04-24T14:29:03;11.10;99.90
39849;DHT22;25518;47.878;15.914;2023-04-24T14:31:52;11.10;99.90
39849;DHT22;25518;47.878;15.914;2023-04-24T14:34:42;11.10;99.90
39849;DHT22;25518;47.878;15.914;2023-04-24T14:37:31;11.20;99.90
39849;DHT22;25518;47.878;15.914;2023-04-24T14:40:21;11.40;99.90
39849;DHT22;25518;47.878;15.914;2023-04-24T14:43:11;11.40;99.90
39849;DHT22;25518;47.878;15.914;2023-04-24T14:46:00;11.50;99.90
39849;DHT22;25518;47.878;15.914;2023-04-24T14:48:51;11.20;99.90
39849;DHT22;25518;47.878;15.914;2023-04-24T14:51:40;11.20;99.90
39849;DHT22;25518;47.878;15.914;2023-04-24T14:54:31;11.20;99.90
39849;DHT22;25518;47.878;15.914;2023-04-24T14:57:21;11.00;99.90
39849;DHT22;25518;47.878;15.914;2023-04-24T15:00:12;10.90;99.90
39849;DHT22;25518;47.878;15.914;2023-04-24T15:03:02;10.90;99.90
39849;DHT22;25518;47.878;15.914;2023-04-24T15:05:51;10.80;99.90
39849;DHT22;25518;47.878;15.914;2023-04-24T15:08:41;10.80;99.90
39849;DHT22;25518;47.878;15.914;2023-04-24T15:11:31;10.60;99.90
39849;DHT22;25518;47.878;15.914;2023-04-24T15:14:21;10.50;99.90
39849;DHT22;25518;47.878;15.914;2023-04-24T15:17:11;10.50;99.90
39849;DHT22;25518;47.878;15.914;2023-04-24T15:20:00;10.40;99.90
39849;DHT22;25518;47.878;15.914;2023-04-24T15:22:50;10.30;99.90
39849;DHT22;25518;47.878;15.914;2023-04-24T15:25:40;10.20;99.90
39849;DHT22;25518;47.878;15.914;2023-04-24T15:28:30;10.10;99.90
39849;DHT22;25518;47.878;15.914;2023-04-24T15:31:21;9.80;99.90
39849;DHT22;25518;47.878;15.914;2023-04-24T15:34:12;9.70;99.90
39849;DHT22;25518;47.878;15.914;2023-04-24T15:37:01;9.60;99.90
39849;DHT22;25518;47.878;15.914;2023-04-24T15:39:51;9.60;99.90
39849;DHT22;25518;47.878;15.914;2023-04-24T15:42:42;9.50;99.90
39849;DHT22;25518;47.878;15.914;2023-04-24T15:45:33;9.60;99.90
39849;DHT22;25518;47.878;15.914;2023-04-24T15:48:22;9.60;99.90
39849;DHT22;25518;47.878;15.914;2023-04-24T15:51:12;9.50;99.90
39849;DHT22;25518;47.878;15.914;2023-04-24T15:54:02;9.40;99.90
39849;DHT22;25518;47.878;15.914;2023-04-24T15:56:51;9.40;99.90
39849;DHT22;25518;47.878;15.914;2023-04-24T15:59:41;9.40;99.90
39849;DHT22;25518;47.878;15.914;2023-04-24T16:02:30;9.40;99.90
39849;DHT22;25518;47.878;15.914;2023-04-24T16:05:20;9.50;99.90
39849;DHT22;25518;47.878;15.914;2023-04-24T16:08:12;9.50;99.90
39849;DHT22;25518;47.878;15.914;2023-04-24T16:11:04;9.60;99.90
39849;DHT22;25518;47.878;15.914;2023-04-24T16:19:14;8.10;99.90
39849;DHT22;25518;47.878;15.914;2023-04-24T16:22:04;9.30;99.90
39849;DHT22;25518;47.878;15.914;2023-04-24T16:24:54;7.20;99.90
39849;DHT22;25518;47.878;15.914;2023-04-24T16:27:44;9.70;99.90
39849;DHT22;25518;47.878;15.914;2023-04-24T16:30:35;9.80;99.90
39849;DHT22;25518;47.878;15.914;2023-04-24T16:33:25;9.10;99.90
39849;DHT22;25518;47.878;15.914;2023-04-24T16:36:15;9.80;99.90
39849;DHT22;25518;47.878;15.914;2023-04-24T16:39:05;9.70;99.90
39849;DHT22;25518;47.878;15.914;2023-04-24T16:41:55;9.60;99.90
39849;DHT22;25518;47.878;15.914;2023-04-24T16:44:46;9.70;99.90
39849;DHT22;25518;47.878;15.914;2023-04-24T16:47:36;9.60;99.90
39849;DHT22;25518;47.878;15.914;2023-04-24T16:50:26;9.60;99.90
39849;DHT22;25518;47.878;15.914;2023-04-24T16:53:16;9.60;99.90
39849;DHT22;25518;47.878;15.914;2023-04-24T16:56:05;9.60;99.90
39849;DHT22;25518;47.878;15.914;2023-04-24T16:58:55;9.60;99.90
39849;DHT22;25518;47.878;15.914;2023-04-24T17:01:44;8.00;99.90
39849;DHT22;25518;47.878;15.914;2023-04-24T17:04:35;9.60;99.90
39849;DHT22;25518;47.878;15.914;2023-04-24T17:07:25;9.60;99.90
39849;DHT22;25518;47.878;15.914;2023-04-24T17:10:14;9.60;99.90
39849;DHT22;25518;47.878;15.914;2023-04-24T17:13:04;9.50;99.90
39849;DHT22;25518;47.878;15.914;2023-04-24T17:15:54;9.50;99.90
39849;DHT22;25518;47.878;15.914;2023-04-24T17:18:44;9.50;99.90
39849;DHT22;25518;47.878;15.914;2023-04-24T17:21:33;9.40;99.90
39849;DHT22;25518;47.878;15.914;2023-04-24T17:24:24;9.30;99.90
39849;DHT22;25518;47.878;15.914;2023-04-24T17:27:15;9.30;99.90
39849;DHT22;25518;47.878;15.914;2023-04-24T17:30:06;9.20;99.90
39849;DHT22;25518;47.878;15.914;2023-04-24T17:32:55;9.20;99.90
39849;DHT22;25518;47.878;15.914;2023-04-24T17:35:45;9.20;99.90
39849;DHT22;25518;47.878;15.914;2023-04-24T17:38:35;8.40;99.90
39849;DHT22;25518;47.878;15.914;2023-04-24T17:41:25;9.10;99.90
39849;DHT22;25518;47.878;15.914;2023-04-24T17:44:15;9.10;99.90
39849;DHT22;25518;47.878;15.914;2023-04-24T17:47:05;9.20;99.90
39849;DHT22;25518;47.878;15.914;2023-04-24T17:49:54;9.10;99.90
39849;DHT22;25518;47.878;15.914;2023-04-24T17:52:44;9.10;99.90
39849;DHT22;25518;47.878;15.914;2023-04-24T17:55:34;9.10;99.90
39849;DHT22;25518;47.878;15.914;2023-04-24T17:58:24;9.10;99.90
39849;DHT22;25518;47.878;15.914;2023-04-24T18:01:14;8.70;99.90
39849;DHT22;25518;47.878;15.914;2023-04-24T18:04:03;9.00;99.90
39849;DHT22;25518;47.878;15.914;2023-04-24T18:06:53;9.00;99.90
39849;DHT22;25518;47.878;15.914;2023-04-24T18:09:43;8.90;99.90
39849;DHT22;25518;47.878;15.914;2023-04-24T18:12:32;8.90;99.90
39849;DHT22;25518;47.878;15.914;2023-04-24T18:15:23;8.90;99.90